Time;durP1;ratioP1;P1;durP2;ratioP2;P2;SDS_P1;SDS_P2;PMS_P1;PMS_P2;Temp;Humidity;BMP_temperature;BMP_pressure;BME280_temperature;BME280_humidity;BME280_pressure;Samples;Min_cycle;Max_cycle;Signal;HPM_P1;HPM_P2
2023/12/26 00:02:17;;;;;;;5.33;1.60;;;3.90;99.90;3.00;98810;;;;564442;252;24083;-78
2023/12/26 00:04:45;;;;;;;3.63;1.37;;;3.90;99.90;3.00;98801;;;;574838;248;24185;-80
2023/12/26 00:07:16;;;;;;;5.13;1.27;;;3.90;99.90;3.10;98795;;;;562698;250;24092;-80
2023/12/26 00:09:41;;;;;;;6.50;1.57;;;4.00;99.90;3.10;98803;;;;567928;249;24108;-79
2023/12/26 00:12:09;;;;;;;3.40;0.90;;;4.10;99.90;3.20;98797;;;;569146;248;24091;-79
2023/12/26 00:14:37;;;;;;;6.30;1.57;;;4.10;99.90;3.20;98797;;;;569078;249;24092;-79
2023/12/26 00:17:06;;;;;;;8.57;1.63;;;4.20;99.90;3.30;98803;;;;573026;249;24067;-78
2023/12/26 00:19:34;;;;;;;5.67;2.70;;;4.20;99.90;3.40;98794;;;;568852;249;24097;-80
2023/12/26 00:22:02;;;;;;;13.30;1.63;;;4.30;99.90;3.40;98804;;;;569017;249;24080;-82
2023/12/26 00:24:29;;;;;;;4.90;0.97;;;4.30;99.90;3.50;98788;;;;568768;249;24084;-78
2023/12/26 00:26:58;;;;;;;4.70;0.87;;;4.40;99.90;3.50;98791;;;;568642;249;24202;-79
2023/12/26 00:29:26;;;;;;;6.50;2.17;;;4.40;99.90;3.60;98798;;;;569472;249;24170;-80
2023/12/26 00:31:55;;;;;;;10.33;1.80;;;4.50;99.90;3.60;98792;;;;568447;249;24077;-79
2023/12/26 00:34:23;;;;;;;4.60;1.70;;;4.50;99.90;3.60;98797;;;;568811;249;24136;-78
2023/12/26 00:36:51;;;;;;;8.40;1.43;;;4.50;99.90;3.60;98787;;;;568514;248;24102;-80
2023/12/26 00:39:18;;;;;;;9.03;2.00;;;4.50;99.90;3.60;98799;;;;568390;249;24108;-79
2023/12/26 00:41:46;;;;;;;5.27;1.50;;;4.50;99.90;3.60;98802;;;;568832;249;24118;-78
2023/12/26 00:44:15;;;;;;;1.37;1.23;;;4.60;99.90;3.70;98795;;;;568811;248;24091;-78
2023/12/26 00:46:46;;;;;;;4.00;1.63;;;4.50;99.90;3.70;98785;;;;568814;249;24140;-77
2023/12/26 00:49:11;;;;;;;6.43;1.20;;;4.60;99.90;3.70;98792;;;;568659;249;24096;-79
2023/12/26 00:51:39;;;;;;;22.27;2.10;;;4.60;99.90;3.80;98782;;;;568753;248;24133;-79
2023/12/26 00:54:07;;;;;;;2.97;1.10;;;4.60;99.90;3.80;98796;;;;570066;248;24140;-78
2023/12/26 00:56:35;;;;;;;4.93;1.13;;;4.70;99.90;3.80;98798;;;;569771;248;24088;-78
2023/12/26 00:59:03;;;;;;;6.63;1.10;;;4.70;99.90;3.80;98786;;;;569558;248;24146;-78
2023/12/26 01:01:32;;;;;;;7.50;1.73;;;4.70;99.90;3.70;98804;;;;570077;248;24086;-78
2023/12/26 01:04:00;;;;;;;2.50;0.80;;;4.60;99.90;3.70;98799;;;;569077;248;24171;-78
2023/12/26 01:06:28;;;;;;;11.13;2.27;;;4.60;99.90;3.70;98802;;;;568533;248;24081;-79
2023/12/26 01:08:55;;;;;;;2.87;1.90;;;4.60;99.90;3.70;98804;;;;568860;248;24144;-79
2023/12/26 01:11:24;;;;;;;7.67;1.23;;;4.60;99.90;3.70;98810;;;;568582;249;24089;-79
2023/12/26 01:13:52;;;;;;;8.00;2.20;;;4.50;99.90;3.60;98807;;;;568568;249;24088;-78
2023/12/26 01:16:25;;;;;;;11.03;2.27;;;4.50;99.90;3.60;98812;;;;564125;248;35241;-79
2023/12/26 01:18:49;;;;;;;10.47;2.00;;;4.50;99.90;3.60;98808;;;;568391;249;25460;-79
2023/12/26 01:21:17;;;;;;;7.40;1.73;;;4.50;99.90;3.60;98805;;;;568620;249;24140;-78
2023/12/26 01:23:44;;;;;;;12.83;1.53;;;4.50;99.90;3.60;98787;;;;568279;249;24096;-78
2023/12/26 01:26:12;;;;;;;2.97;0.90;;;4.50;99.90;3.60;98792;;;;568652;249;24096;-79
2023/12/26 01:28:41;;;;;;;6.67;1.27;;;4.40;99.90;3.50;98800;;;;568885;248;24093;-79
2023/12/26 01:31:09;;;;;;;8.70;1.87;;;4.40;99.90;3.50;98788;;;;569875;249;24168;-79
2023/12/26 01:33:37;;;;;;;3.17;1.27;;;4.40;99.90;3.50;98797;;;;568573;249;24102;-79
2023/12/26 01:36:05;;;;;;;0.70;0.70;;;4.40;99.90;3.50;98787;;;;567983;249;24081;-80
2023/12/26 01:38:33;;;;;;;2.83;0.90;;;4.30;99.90;3.40;98781;;;;570331;249;24104;-79
2023/12/26 01:41:02;;;;;;;0.87;0.63;;;4.30;99.90;3.40;98787;;;;570771;249;24106;-80
2023/12/26 01:43:30;;;;;;;1.67;1.00;;;4.30;99.90;3.40;98783;;;;568707;248;24147;-80
2023/12/26 01:45:58;;;;;;;11.03;0.90;;;4.30;99.90;3.40;98791;;;;568335;249;24142;-77
2023/12/26 01:48:26;;;;;;;3.80;0.77;;;4.30;99.90;3.40;98779;;;;570226;249;24161;-80
2023/12/26 01:50:54;;;;;;;8.33;1.23;;;4.30;99.90;3.40;98782;;;;570745;249;24077;-78
2023/12/26 01:53:22;;;;;;;3.90;0.80;;;4.20;99.90;3.30;98771;;;;570761;249;24112;-79
2023/12/26 01:55:51;;;;;;;5.17;1.40;;;4.20;99.90;3.30;98792;;;;568860;249;24093;-79
2023/12/26 01:58:19;;;;;;;6.47;1.90;;;4.20;99.90;3.30;98780;;;;568793;248;24176;-79
2023/12/26 02:00:47;;;;;;;11.37;1.50;;;4.20;99.90;3.30;98783;;;;568841;249;24084;-79
2023/12/26 02:03:14;;;;;;;7.43;1.83;;;4.20;99.90;3.30;98787;;;;569985;248;24187;-79
2023/12/26 02:05:42;;;;;;;12.30;1.07;;;4.20;99.90;3.30;98777;;;;569720;248;24083;-79
2023/12/26 02:08:13;;;;;;;2.17;1.00;;;4.20;99.90;3.30;98766;;;;569251;248;24093;-80
2023/12/26 02:10:38;;;;;;;3.87;1.20;;;4.20;99.90;3.30;98787;;;;570504;248;24117;-79
2023/12/26 02:13:06;;;;;;;6.70;1.70;;;4.20;99.90;3.30;98776;;;;569463;248;24072;-79
2023/12/26 02:15:35;;;;;;;7.27;2.03;;;4.20;99.90;3.30;98777;;;;569350;248;24081;-79
2023/12/26 02:18:03;;;;;;;5.07;1.03;;;4.10;99.90;3.30;98768;;;;569249;248;24085;-79
2023/12/26 02:20:31;;;;;;;14.40;1.60;;;4.20;99.90;3.30;98772;;;;571301;248;24106;-79
2023/12/26 02:22:59;;;;;;;3.60;1.63;;;4.20;99.90;3.30;98774;;;;569312;249;24095;-78
2023/12/26 02:25:27;;;;;;;5.23;1.63;;;4.20;99.90;3.30;98770;;;;569084;249;24079;-79
2023/12/26 02:27:55;;;;;;;9.03;1.10;;;4.20;99.90;3.30;98763;;;;568801;249;24119;-79
2023/12/26 02:30:23;;;;;;;5.33;1.33;;;4.20;99.90;3.30;98764;;;;570092;249;24102;-80
2023/12/26 02:32:58;;;;;;;3.87;1.40;;;4.20;99.90;3.30;98743;;;;570056;249;24101;-79
2023/12/26 02:35:23;;;;;;;2.50;1.27;;;4.10;99.90;3.30;98738;;;;572794;249;25475;-79
2023/12/26 02:37:54;;;;;;;3.57;1.43;;;4.20;99.90;3.30;98745;;;;570578;249;24104;-79
2023/12/26 02:40:19;;;;;;;3.40;1.27;;;4.20;99.90;3.30;98745;;;;569700;249;24099;-80
2023/12/26 02:42:47;;;;;;;12.33;2.40;;;4.20;99.90;3.30;98739;;;;568875;249;24115;-80
2023/12/26 02:45:15;;;;;;;2.13;1.13;;;4.20;99.90;3.30;98729;;;;568842;249;24121;-79
2023/12/26 02:47:43;;;;;;;6.33;1.70;;;4.20;99.90;3.30;98727;;;;568309;248;24100;-80
2023/12/26 02:50:12;;;;;;;14.27;2.70;;;4.20;99.90;3.30;98722;;;;563995;249;35285;-79
2023/12/26 02:52:41;;;;;;;9.07;2.00;;;4.20;99.90;3.30;98718;;;;564115;249;35340;-79
2023/12/26 02:55:08;;;;;;;11.33;2.80;;;4.20;99.90;3.30;98719;;;;563825;249;35368;-80
2023/12/26 02:57:36;;;;;;;8.47;1.93;;;4.20;99.90;3.30;98724;;;;568821;249;25120;-79
2023/12/26 03:00:05;;;;;;;4.43;1.83;;;4.20;99.90;3.30;98726;;;;568813;249;24148;-80
2023/12/26 03:02:33;;;;;;;9.03;2.00;;;4.20;99.90;3.30;98720;;;;568625;249;24164;-78
2023/12/26 03:04:59;;;;;;;1.17;1.10;;;4.20;99.90;3.30;98715;;;;567847;249;24100;-79
2023/12/26 03:07:27;;;;;;;3.50;1.97;;;4.20;99.90;3.30;98710;;;;568384;249;25339;-80
2023/12/26 03:09:57;;;;;;;4.43;1.77;;;4.20;99.90;3.30;98705;;;;568523;248;24104;-79
2023/12/26 03:12:24;;;;;;;4.80;1.70;;;4.20;99.90;3.30;98705;;;;568777;249;24094;-79
2023/12/26 03:14:52;;;;;;;9.47;1.10;;;4.20;99.90;3.30;98700;;;;569241;248;25135;-80
2023/12/26 03:17:19;;;;;;;7.93;1.77;;;4.20;99.90;3.30;98703;;;;570077;248;24158;-80
2023/12/26 03:19:47;;;;;;;3.93;1.53;;;4.10;99.90;3.30;98688;;;;569698;248;24084;-79
2023/12/26 03:22:16;;;;;;;11.23;1.63;;;4.20;99.90;3.30;98680;;;;569550;248;24080;-79
2023/12/26 03:24:44;;;;;;;4.23;1.87;;;4.20;99.90;3.30;98687;;;;570819;248;24085;-79
2023/12/26 03:27:15;;;;;;;6.17;1.87;;;4.20;99.90;3.30;98696;;;;569125;248;24103;-80
2023/12/26 03:29:40;;;;;;;4.33;1.40;;;4.20;99.90;3.30;98693;;;;570006;248;24107;-79
2023/12/26 03:32:08;;;;;;;11.07;1.03;;;4.20;99.90;3.30;98691;;;;569053;248;24158;-78
2023/12/26 03:34:36;;;;;;;7.97;2.00;;;4.20;99.90;3.30;98692;;;;570509;249;24101;-80
2023/12/26 03:37:06;;;;;;;6.00;1.20;;;4.20;99.90;3.30;98677;;;;570261;249;24132;-79
2023/12/26 03:39:32;;;;;;;4.53;1.20;;;4.20;99.90;3.30;98674;;;;570428;249;24118;-80
2023/12/26 03:41:59;;;;;;;6.90;1.30;;;4.20;99.90;3.40;98674;;;;568969;248;24110;-81
2023/12/26 03:44:28;;;;;;;9.20;1.27;;;4.30;99.90;3.40;98675;;;;568816;249;24106;-80
2023/12/26 03:46:56;;;;;;;7.43;1.40;;;4.30;99.90;3.40;98668;;;;568691;248;24108;-80
2023/12/26 03:49:24;;;;;;;8.03;1.77;;;4.30;99.90;3.40;98670;;;;568802;249;24102;-79
2023/12/26 03:51:52;;;;;;;7.00;1.73;;;4.30;99.90;3.40;98664;;;;568510;249;24099;-79
2023/12/26 03:54:22;;;;;;;11.77;2.37;;;4.40;99.90;3.50;98658;;;;567934;249;24119;-79
2023/12/26 03:56:49;;;;;;;2.20;1.20;;;4.30;99.90;3.50;98658;;;;568434;249;24141;-79
2023/12/26 03:59:17;;;;;;;19.73;1.90;;;4.40;99.90;3.50;98657;;;;567962;249;24133;-78
2023/12/26 04:01:45;;;;;;;10.53;1.53;;;4.40;99.90;3.50;98658;;;;568558;249;24109;-78
2023/12/26 04:04:16;;;;;;;13.03;2.27;;;4.40;99.90;3.50;98643;;;;563515;249;35256;-79
2023/12/26 04:06:41;;;;;;;10.82;2.53;;;4.40;99.90;3.60;98651;;;;573568;247;35307;-80
2023/12/26 04:09:09;;;;;;;11.12;2.62;;;4.40;99.90;3.60;98652;;;;565708;249;35312;-80
2023/12/26 04:11:36;;;;;;;6.00;1.93;;;4.50;99.90;3.60;98648;;;;568766;249;24101;-80
2023/12/26 04:14:04;;;;;;;5.23;1.67;;;4.50;99.90;3.60;98648;;;;568824;248;25120;-80
2023/12/26 04:16:33;;;;;;;7.33;1.23;;;4.60;99.90;3.70;98647;;;;568408;249;24089;-79
2023/12/26 04:19:01;;;;;;;8.57;1.80;;;4.60;99.90;3.70;98643;;;;568564;249;24073;-79
2023/12/26 04:21:29;;;;;;;10.10;1.57;;;4.60;99.90;3.70;98632;;;;568497;249;24080;-78
2023/12/26 04:23:57;;;;;;;5.50;1.03;;;4.60;99.90;3.70;98636;;;;568415;249;24081;-79
2023/12/26 04:26:25;;;;;;;5.80;1.20;;;4.60;99.90;3.70;98631;;;;568898;248;24510;-79
2023/12/26 04:28:56;;;;;;;14.53;2.23;;;4.70;99.90;3.70;98630;;;;569745;248;24085;-82
2023/12/26 04:31:21;;;;;;;3.83;0.90;;;4.60;99.90;3.80;98627;;;;570703;248;24130;-80
2023/12/26 04:33:49;;;;;;;2.43;1.43;;;4.70;99.90;3.80;98614;;;;569296;248;24102;-80
2023/12/26 04:36:17;;;;;;;8.20;2.57;;;4.70;99.90;3.80;98609;;;;570506;248;24132;-79
2023/12/26 04:38:45;;;;;;;3.30;1.07;;;4.70;99.90;3.80;98603;;;;569042;248;24148;-80
2023/12/26 04:41:13;;;;;;;3.87;1.37;;;4.70;99.90;3.80;98602;;;;568893;248;25143;-79
2023/12/26 04:43:41;;;;;;;2.00;1.43;;;4.70;99.90;3.80;98596;;;;569057;248;24091;-80
2023/12/26 04:46:09;;;;;;;10.07;2.00;;;4.70;99.90;3.80;98591;;;;569161;249;24076;-77
2023/12/26 04:48:37;;;;;;;11.17;1.80;;;4.70;99.90;3.80;98586;;;;571020;249;24100;-79
2023/12/26 04:51:05;;;;;;;5.00;1.97;;;4.70;99.90;3.80;98585;;;;573777;249;24133;-78
2023/12/26 04:53:34;;;;;;;7.67;1.13;;;4.70;99.90;3.80;98585;;;;569112;249;24072;-78
2023/12/26 04:56:02;;;;;;;3.30;1.63;;;4.70;99.90;3.80;98579;;;;569111;249;24085;-78
2023/12/26 04:58:33;;;;;;;13.87;1.97;;;4.70;99.90;3.80;98579;;;;569098;249;24132;-78
2023/12/26 05:00:57;;;;;;;13.00;2.37;;;4.60;99.90;3.80;98575;;;;570269;249;24092;-78
2023/12/26 05:03:25;;;;;;;4.77;1.37;;;4.60;99.90;3.70;98564;;;;568335;249;24138;-79
2023/12/26 05:05:54;;;;;;;3.37;1.20;;;4.60;99.90;3.70;98561;;;;568852;249;24103;-78
2023/12/26 05:08:22;;;;;;;4.97;1.27;;;4.60;99.90;3.70;98556;;;;570398;249;24097;-77
2023/12/26 05:10:50;;;;;;;2.40;1.23;;;4.60;99.90;3.60;98554;;;;568384;248;24139;-77
2023/12/26 05:13:18;;;;;;;6.10;1.27;;;4.50;99.90;3.60;98539;;;;568532;249;24084;-77
2023/12/26 05:15:46;;;;;;;2.27;0.90;;;4.50;99.90;3.60;98552;;;;568454;249;24074;-78
2023/12/26 05:18:14;;;;;;;4.33;0.73;;;4.50;99.90;3.60;98550;;;;568791;249;24095;-79
2023/12/26 05:20:42;;;;;;;6.37;1.33;;;4.50;99.90;3.60;98535;;;;568842;249;24140;-77
2023/12/26 05:23:10;;;;;;;8.33;1.53;;;4.50;99.90;3.60;98537;;;;568989;249;24092;-77
2023/12/26 05:25:38;;;;;;;3.70;1.13;;;4.50;99.90;3.60;98548;;;;568346;249;25115;-77
2023/12/26 05:28:06;;;;;;;13.03;2.43;;;4.50;99.90;3.60;98540;;;;568363;249;24089;-78
2023/12/26 05:30:34;;;;;;;9.67;2.37;;;4.50;99.90;3.60;98527;;;;563666;249;35271;-78
2023/12/26 05:33:02;;;;;;;12.48;3.25;;;4.40;99.90;3.60;98520;;;;563600;248;35340;-79
2023/12/26 05:35:30;;;;;;;8.10;1.70;;;4.50;99.90;3.60;98509;;;;570570;249;24121;-77
2023/12/26 05:37:58;;;;;;;3.73;1.20;;;4.50;99.90;3.60;98499;;;;569811;248;24080;-78
2023/12/26 05:40:26;;;;;;;12.97;2.13;;;4.50;99.90;3.60;98499;;;;569603;248;24092;-79
2023/12/26 05:42:54;;;;;;;5.63;1.53;;;4.50;99.90;3.60;98503;;;;569485;248;24092;-77
2023/12/26 05:45:22;;;;;;;2.07;1.03;;;4.50;99.90;3.50;98497;;;;569250;248;24084;-79
2023/12/26 05:47:50;;;;;;;10.13;1.63;;;4.40;99.90;3.50;98485;;;;569482;248;24077;-80
2023/12/26 05:50:18;;;;;;;9.77;1.90;;;4.30;99.90;3.50;98472;;;;564446;248;35282;-79
2023/12/26 05:52:46;;;;;;;13.50;2.95;;;4.30;99.90;3.40;98463;;;;564437;248;35283;-79
2023/12/26 05:55:16;;;;;;;8.43;2.17;;;4.30;99.90;3.40;98455;;;;564426;248;35296;-79
2023/12/26 05:57:43;;;;;;;6.60;1.90;;;4.30;99.90;3.30;98457;;;;570533;249;24112;-79
2023/12/26 06:00:15;;;;;;;3.43;1.47;;;4.20;99.90;3.30;98450;;;;569057;249;24095;-78
2023/12/26 06:02:39;;;;;;;3.83;1.27;;;4.20;99.90;3.30;98449;;;;569682;249;24096;-78
2023/12/26 06:05:07;;;;;;;4.23;1.60;;;4.20;99.90;3.30;98444;;;;571033;249;24089;-78
2023/12/26 06:07:35;;;;;;;2.33;1.40;;;4.10;99.90;3.30;98435;;;;569077;249;24135;-79
2023/12/26 06:10:08;;;;;;;8.63;1.67;;;4.10;99.90;3.20;98421;;;;570162;249;24166;-79
2023/12/26 06:12:32;;;;;;;3.27;1.17;;;4.10;99.90;3.20;98431;;;;569918;249;24141;-79
2023/12/26 06:15:00;;;;;;;3.17;1.30;;;4.10;99.90;3.20;98426;;;;568550;249;24099;-78
2023/12/26 06:17:29;;;;;;;4.37;2.03;;;4.00;99.90;3.10;98424;;;;568551;249;24080;-79
2023/12/26 06:19:55;;;;;;;1.67;1.03;;;4.00;99.90;3.10;98424;;;;568757;249;24103;-77
2023/12/26 06:22:24;;;;;;;8.00;2.07;;;3.90;99.90;3.10;98436;;;;568820;249;25145;-79
2023/12/26 06:24:52;;;;;;;6.27;1.70;;;3.90;99.90;3.00;98426;;;;568831;249;24096;-78
2023/12/26 06:27:21;;;;;;;2.80;1.43;;;3.90;99.90;3.00;98431;;;;568568;249;24170;-78
2023/12/26 06:29:49;;;;;;;2.23;1.13;;;3.90;99.90;3.00;98420;;;;568992;249;24064;-79
2023/12/26 06:32:16;;;;;;;3.80;1.77;;;3.80;99.90;3.00;98406;;;;568822;248;24138;-78
2023/12/26 06:34:44;;;;;;;7.67;1.33;;;3.90;99.90;3.00;98406;;;;568823;249;25165;-78
2023/12/26 06:37:12;;;;;;;8.00;1.47;;;3.90;99.90;3.00;98395;;;;568786;249;24093;-79
2023/12/26 06:39:44;;;;;;;10.40;2.90;;;3.80;99.90;3.00;98389;;;;564971;249;35332;-79
2023/12/26 06:42:09;;;;;;;11.43;3.35;;;3.80;99.90;3.00;98385;;;;573280;248;35356;-79
2023/12/26 06:44:37;;;;;;;4.80;1.67;;;3.80;99.90;3.00;98379;;;;567943;249;24102;-79
2023/12/26 06:47:05;;;;;;;5.50;1.50;;;3.90;99.90;3.00;98366;;;;568547;249;24065;-79
2023/12/26 06:49:32;;;;;;;2.17;1.43;;;3.90;99.90;3.00;98357;;;;569206;248;24075;-78
2023/12/26 06:52:02;;;;;;;5.40;1.53;;;3.90;99.90;3.00;98365;;;;570264;248;24094;-78
2023/12/26 06:54:32;;;;;;;3.37;2.17;;;3.80;99.90;3.00;98365;;;;569658;248;24091;-79
2023/12/26 06:56:56;;;;;;;1.10;0.90;;;3.80;99.90;2.90;98359;;;;569363;248;24096;-79
2023/12/26 06:59:25;;;;;;;5.77;1.33;;;3.80;99.90;3.00;98347;;;;569469;248;24107;-80
2023/12/26 07:01:53;;;;;;;5.27;1.10;;;3.80;99.90;3.00;98374;;;;569341;248;24081;-79
2023/12/26 07:04:21;;;;;;;8.67;1.47;;;3.80;99.90;2.90;98359;;;;569329;248;24077;-79
2023/12/26 07:06:50;;;;;;;2.63;1.40;;;3.80;99.90;3.00;98358;;;;569326;248;24088;-78
2023/12/26 07:09:17;;;;;;;9.13;2.90;;;3.80;99.90;3.00;98363;;;;564024;249;35185;-79
2023/12/26 07:11:45;;;;;;;6.78;2.78;;;3.80;99.90;3.00;98357;;;;564853;249;35271;-79
2023/12/26 07:14:13;;;;;;;11.27;1.80;;;3.90;99.90;3.10;98360;;;;568672;249;24076;-78
2023/12/26 07:16:42;;;;;;;1.40;1.30;;;4.00;99.90;3.10;98347;;;;568854;249;24103;-79
2023/12/26 07:19:10;;;;;;;2.57;1.47;;;4.00;99.90;3.20;98335;;;;568750;249;24100;-79
2023/12/26 07:21:37;;;;;;;4.03;1.37;;;4.00;99.90;3.20;98325;;;;569034;249;25159;-79
2023/12/26 07:24:05;;;;;;;2.53;1.57;;;4.00;99.90;3.10;98331;;;;569072;248;24085;-79
2023/12/26 07:26:36;;;;;;;6.53;2.40;;;4.00;99.90;3.10;98326;;;;570233;249;24097;-78
2023/12/26 07:29:05;;;;;;;1.50;1.30;;;4.00;99.90;3.10;98325;;;;570130;249;24100;-78
2023/12/26 07:31:30;;;;;;;1.17;1.17;;;3.90;99.90;3.20;98327;;;;567954;248;24097;-79
2023/12/26 07:34:02;;;;;;;1.43;1.33;;;4.10;99.90;3.20;98332;;;;568860;248;24097;-78
2023/12/26 07:36:30;;;;;;;0.60;0.60;;;4.00;99.90;3.30;98326;;;;570147;249;24093;-78
2023/12/26 07:38:54;;;;;;;1.23;1.13;;;4.10;99.90;3.40;98328;;;;567972;249;24101;-78
2023/12/26 07:41:22;;;;;;;1.63;0.80;;;4.20;99.90;3.40;98313;;;;569509;249;24097;-78
2023/12/26 07:43:51;;;;;;;2.00;1.50;;;4.30;99.90;3.50;98315;;;;568394;248;24092;-78
2023/12/26 07:46:20;;;;;;;1.43;1.10;;;4.40;99.90;3.60;98324;;;;568579;249;24088;-78
2023/12/26 07:48:47;;;;;;;1.83;1.10;;;4.40;99.90;3.60;98317;;;;568414;248;24119;-80
2023/12/26 07:51:15;;;;;;;1.07;1.07;;;4.50;99.90;3.70;98322;;;;568817;249;24105;-77
2023/12/26 07:53:43;;;;;;;6.63;1.60;;;4.50;99.90;3.80;98316;;;;568809;249;24069;-78
2023/12/26 07:56:11;;;;;;;1.10;1.00;;;4.60;99.90;3.80;98302;;;;570686;249;24077;-77
2023/12/26 07:58:39;;;;;;;1.63;1.20;;;4.70;99.90;3.90;98303;;;;570785;249;24085;-77
2023/12/26 08:01:07;;;;;;;1.30;1.20;;;4.80;99.90;4.00;98305;;;;569208;248;25173;-78
2023/12/26 08:03:36;;;;;;;1.50;1.23;;;4.90;99.90;4.10;98301;;;;570067;247;24117;-78
2023/12/26 08:06:03;;;;;;;1.40;1.00;;;4.90;99.90;4.10;98298;;;;569732;248;25116;-81
2023/12/26 08:08:32;;;;;;;1.43;1.33;;;5.00;99.90;4.20;98295;;;;569575;248;24091;-79
2023/12/26 08:11:00;;;;;;;1.10;1.10;;;5.00;99.90;4.30;98293;;;;569489;248;24222;-79
2023/12/26 08:13:28;;;;;;;1.30;1.10;;;5.10;99.90;4.30;98294;;;;569892;248;24098;-79
2023/12/26 08:15:56;;;;;;;0.97;0.97;;;5.20;99.90;4.50;98287;;;;569099;248;24087;-79
2023/12/26 08:18:24;;;;;;;0.93;0.70;;;5.30;99.90;4.60;98301;;;;570916;248;24080;-79
2023/12/26 08:20:52;;;;;;;3.17;1.00;;;5.50;99.90;4.70;98301;;;;568646;248;24080;-80
2023/12/26 08:23:20;;;;;;;0.93;0.87;;;5.50;99.90;4.80;98321;;;;569063;249;24116;-80
2023/12/26 08:25:49;;;;;;;2.03;0.77;;;5.70;99.90;4.90;98311;;;;569081;248;24077;-79
2023/12/26 08:28:17;;;;;;;1.13;0.70;;;5.70;99.90;4.90;98310;;;;569045;249;24076;-81
2023/12/26 08:30:45;;;;;;;0.73;0.73;;;5.70;99.90;5.00;98303;;;;568607;248;24082;-80
2023/12/26 08:33:14;;;;;;;0.87;0.60;;;5.80;99.90;5.10;98300;;;;569114;249;24091;-80
2023/12/26 08:35:40;;;;;;;0.37;0.37;;;5.90;99.90;5.30;98297;;;;568411;249;24109;-80
2023/12/26 08:38:09;;;;;;;1.30;1.20;;;6.20;99.90;5.50;98301;;;;563528;249;35115;-80
2023/12/26 08:40:37;;;;;;;1.70;1.20;;;6.20;99.90;5.60;98295;;;;568807;248;25115;-80
2023/12/26 08:43:05;;;;;;;1.43;1.33;;;6.40;99.90;5.70;98291;;;;569389;249;24097;-79
2023/12/26 08:45:34;;;;;;;1.47;1.23;;;6.50;99.90;5.80;98301;;;;568667;249;24143;-80
2023/12/26 08:48:01;;;;;;;3.13;0.90;;;6.60;99.90;6.00;98294;;;;568452;249;24133;-80
2023/12/26 08:50:29;;;;;;;2.53;1.30;;;6.90;99.90;6.20;98301;;;;570355;249;24101;-80
2023/12/26 08:52:57;;;;;;;1.03;1.03;;;6.90;99.90;6.20;98292;;;;568859;249;24134;-80
2023/12/26 08:55:25;;;;;;;0.83;0.80;;;7.00;99.90;6.30;98305;;;;568308;249;24079;-79
2023/12/26 08:57:53;;;;;;;0.90;0.77;;;7.20;99.90;6.50;98305;;;;568820;248;24126;-79
2023/12/26 09:00:25;;;;;;;2.03;1.93;;;7.50;99.90;6.70;98317;;;;563958;249;35165;-79
2023/12/26 09:02:50;;;;;;;2.10;1.67;;;7.50;99.90;6.80;98319;;;;570002;249;24164;-79
2023/12/26 09:05:18;;;;;;;1.70;1.60;;;7.70;99.90;6.80;98314;;;;568806;248;24084;-79
2023/12/26 09:07:46;;;;;;;1.13;1.00;;;7.70;99.90;6.80;98324;;;;568810;248;24083;-79
2023/12/26 09:10:15;;;;;;;3.80;2.00;;;7.60;99.90;6.80;98333;;;;568795;249;24154;-80
2023/12/26 09:12:43;;;;;;;1.43;1.30;;;7.60;99.90;6.80;98325;;;;569222;248;24079;-79
2023/12/26 09:15:11;;;;;;;2.53;1.60;;;7.60;99.90;6.80;98331;;;;570795;248;24130;-78
2023/12/26 09:17:39;;;;;;;1.50;0.83;;;7.70;99.90;6.90;98327;;;;569277;248;24092;-79
2023/12/26 09:20:10;;;;;;;3.20;1.00;;;7.70;99.90;7.00;98336;;;;569114;248;24123;-78
2023/12/26 09:22:35;;;;;;;1.80;1.43;;;7.70;99.90;6.90;98342;;;;565790;248;35263;-79
2023/12/26 09:25:07;;;;;;;5.17;1.60;;;7.70;99.90;6.90;98359;;;;569341;248;24076;-79
2023/12/26 09:27:32;;;;;;;3.03;1.20;;;7.70;99.90;6.90;98352;;;;578778;247;24108;-78
2023/12/26 09:30:00;;;;;;;2.03;1.40;;;7.70;99.90;6.90;98364;;;;569107;248;28397;-80
2023/12/26 09:32:28;;;;;;;2.20;1.63;;;7.70;99.90;6.90;98361;;;;568917;249;24156;-78
2023/12/26 09:34:55;;;;;;;2.47;1.50;;;7.70;99.90;6.90;98360;;;;568937;249;24091;-78
2023/12/26 09:37:23;;;;;;;1.07;0.97;;;7.70;99.90;6.80;98357;;;;568566;249;24095;-77
2023/12/26 09:39:52;;;;;;;1.33;1.20;;;7.60;99.90;6.80;98360;;;;568790;249;24094;-76
2023/12/26 09:42:20;;;;;;;1.47;1.00;;;7.60;99.90;6.80;98353;;;;568668;249;24103;-77
2023/12/26 09:44:48;;;;;;;2.43;1.33;;;7.60;99.90;6.80;98349;;;;578749;247;24171;-78
2023/12/26 09:47:19;;;;;;;3.90;1.07;;;7.60;99.90;6.90;98361;;;;568584;249;24083;-78
2023/12/26 09:49:45;;;;;;;1.20;1.10;;;7.60;99.90;7.00;98352;;;;569627;249;24119;-79
2023/12/26 09:52:16;;;;;;;2.93;1.23;;;7.70;99.90;7.10;98354;;;;568727;249;24123;-79
2023/12/26 09:54:40;;;;;;;3.03;1.20;;;7.80;99.90;7.10;98357;;;;570083;249;24099;-80
2023/12/26 09:57:09;;;;;;;1.53;1.30;;;7.90;99.90;7.20;98356;;;;574195;245;24067;-79
2023/12/26 10:00:02;;;;;;;;;;;;;;;;;;;;;
2023/12/26 10:02:49;;;;;;;1.03;1.03;;;8.00;99.90;7.40;98358;;;;577128;244;24114;-80
2023/12/26 10:17:44;;;;;;;1.93;1.10;;;8.40;99.90;7.70;98362;;;;557602;255;24133;-83
2023/12/26 10:20:08;;;;;;;2.03;1.43;;;8.50;99.90;7.80;98366;;;;565116;249;24134;-82
2023/12/26 10:22:36;;;;;;;1.30;1.20;;;8.60;99.90;8.00;98355;;;;577417;248;24118;-84
2023/12/26 10:25:05;;;;;;;1.70;1.40;;;9.00;99.90;8.10;98352;;;;577325;245;24098;-85
2023/12/26 10:27:32;;;;;;;3.87;1.20;;;9.00;99.90;8.20;98355;;;;577133;248;24161;-83
2023/12/26 10:30:01;;;;;;;3.13;1.50;;;9.20;99.90;8.30;98350;;;;564831;249;35207;-82
2023/12/26 10:32:29;;;;;;;2.03;1.40;;;9.20;99.90;8.40;98342;;;;569672;250;24087;-84
2023/12/26 10:34:57;;;;;;;1.40;1.07;;;9.30;99.90;8.40;98358;;;;560778;253;24105;-80
2023/12/26 10:37:25;;;;;;;3.17;1.10;;;9.30;99.90;8.40;98354;;;;555765;253;24144;-81
2023/12/26 10:39:53;;;;;;;5.83;1.17;;;9.30;99.90;8.40;98350;;;;569302;250;24107;-79
2023/12/26 10:42:21;;;;;;;1.43;1.00;;;9.30;99.90;8.40;98350;;;;569336;250;24096;-81
2023/12/26 10:44:55;;;;;;;5.93;1.50;;;9.20;99.90;8.40;98360;;;;560707;253;24103;-79
2023/12/26 10:47:23;;;;;;;3.33;1.10;;;9.20;99.90;8.30;98344;;;;560219;253;24113;-80
2023/12/26 10:49:55;;;;;;;1.90;0.60;;;9.10;99.90;8.20;98344;;;;560575;250;24155;-80
2023/12/26 10:52:19;;;;;;;2.10;0.90;;;9.10;99.90;8.20;98353;;;;559569;253;24128;-81
2023/12/26 10:54:47;;;;;;;2.43;0.70;;;9.00;99.90;8.10;98362;;;;568997;251;24135;-79
2023/12/26 10:57:15;;;;;;;2.43;1.13;;;9.00;99.90;8.10;98350;;;;560696;250;24108;-78
2023/12/26 11:00:47;;;;;;;3.30;1.00;;;8.90;99.90;8.00;98351;;;;569336;245;24095;-80
2023/12/26 13:53:06;;;;;;;1.27;0.43;;;7.30;99.90;6.50;98498;;;;580935;240;24058;-80
2023/12/26 13:56:29;;;;;;;2.63;1.37;;;7.30;99.90;6.50;98504;;;;583040;242;24042;-81
2023/12/26 13:59:52;;;;;;;1.37;0.80;;;7.30;99.90;6.50;98516;;;;586246;240;24045;-80
2023/12/26 14:03:15;;;;;;;1.10;0.67;;;7.30;99.90;6.40;98520;;;;587064;242;24056;-80
2023/12/26 14:06:38;;;;;;;1.13;1.03;;;7.20;99.90;6.30;98522;;;;586754;242;24020;-81
2023/12/26 14:10:01;;;;;;;0.30;0.30;;;7.10;99.90;6.20;98538;;;;586609;242;24097;-82
2023/12/26 14:13:24;;;;;;;0.23;0.23;;;7.00;99.90;6.10;98545;;;;586831;242;24096;-81
2023/12/26 14:16:47;;;;;;;0.20;0.20;;;6.90;99.90;6.00;98554;;;;586920;242;24033;-80
2023/12/26 14:20:10;;;;;;;1.20;0.80;;;6.80;99.90;5.90;98546;;;;584491;239;24015;-81
2023/12/26 14:23:33;;;;;;;2.50;0.70;;;6.70;99.90;5.80;98550;;;;598219;237;24018;-80
2023/12/26 14:26:56;;;;;;;3.10;1.27;;;6.60;99.90;5.80;98548;;;;590004;238;24055;-81
2023/12/26 14:30:19;;;;;;;4.27;0.70;;;6.60;99.90;5.70;98558;;;;594153;239;24032;-84
2023/12/26 14:33:42;;;;;;;2.00;0.97;;;6.60;99.90;5.70;98580;;;;592545;238;24012;-85
2023/12/26 14:37:05;;;;;;;4.80;1.03;;;6.50;99.90;5.70;98589;;;;579714;243;24026;-84
2023/12/26 14:40:28;;;;;;;0.63;0.57;;;6.50;99.90;5.60;98586;;;;593569;237;24007;-82
2023/12/26 14:43:54;;;;;;;0.53;0.53;;;6.40;99.90;5.50;98591;;;;581214;243;24083;-82
2023/12/26 14:47:14;;;;;;;6.70;0.90;;;6.40;99.90;5.60;98621;;;;591043;238;24032;-82
2023/12/26 14:50:38;;;;;;;1.50;0.63;;;6.40;99.90;5.60;98614;;;;592692;238;24036;-83
2023/12/26 14:54:01;;;;;;;1.90;0.57;;;6.40;99.90;5.60;98628;;;;580069;244;24050;-82
2023/12/26 14:57:24;;;;;;;1.87;1.03;;;6.40;99.90;5.50;98626;;;;590745;238;24083;-82
2023/12/26 15:00:47;;;;;;;0.60;0.60;;;6.30;99.90;5.40;98630;;;;591329;239;24033;-83